Saint Landry, Louisiana
Current Conditions -  °F | °C
As of 2:15 PM on Friday 19 Dec 2014 (Local Time) from KOPL Reporting Station
Moderate Rain Moderate Rain  
Wind Chill: 54°   Ceiling: 400
Heat Index: 54°   Visibility: 7mi
Dew Point: 53°   Wind: 8mph
Humidity: 97%   Direction: 10°N
Pressure: 30.06"   Gusts: NA
Location:  30.84°N, 92.26°W
Report Text: KOPL 192015Z AUTO 01007KT 7SM RA OVC004 12/12 A3006 RMK AO2 P0006 T01200115
Loading
Personal Weather Stations






























Interactive Weather Map New forecast layout! Learn more

10-Day Weather Forecast

Advertisements
Track Severe Weather on mobile